sensor_id;sensor_type;location;lat;lon;timestamp;pressure;altitude;pressure_sealevel;temperature;humidity
49055;BME280;35405;52.344;14.530;2022-07-03T05:42:40;101321.34;;;18.39;100.00
49055;BME280;35405;52.344;14.530;2022-07-03T05:45:05;101328.31;;;18.36;100.00
49055;BME280;35405;52.344;14.530;2022-07-03T05:47:31;101324.66;;;18.53;100.00
49055;BME280;35405;52.344;14.530;2022-07-03T05:49:56;101318.03;;;18.54;100.00
49055;BME280;35405;52.344;14.530;2022-07-03T05:52:21;101320.28;;;18.61;100.00
49055;BME280;35405;52.344;14.530;2022-07-03T05:54:47;101311.63;;;18.71;100.00
49055;BME280;35405;52.344;14.530;2022-07-03T05:57:13;101315.63;;;18.91;100.00
49055;BME280;35405;52.344;14.530;2022-07-03T05:59:38;101321.03;;;19.08;100.00
49055;BME280;35405;52.344;14.530;2022-07-03T06:02:04;101317.34;;;19.25;100.00
49055;BME280;35405;52.344;14.530;2022-07-03T06:04:29;101324.91;;;19.37;100.00
49055;BME280;35405;52.344;14.530;2022-07-03T06:06:54;101320.13;;;19.46;100.00
49055;BME280;35405;52.344;14.530;2022-07-03T06:09:20;101318.44;;;19.33;100.00
49055;BME280;35405;52.344;14.530;2022-07-03T06:11:46;101320.47;;;19.45;100.00
49055;BME280;35405;52.344;14.530;2022-07-03T06:14:12;101317.16;;;19.51;100.00
49055;BME280;35405;52.344;14.530;2022-07-03T06:16:37;101317.41;;;19.58;100.00
49055;BME280;35405;52.344;14.530;2022-07-03T06:19:03;101314.22;;;19.77;100.00
49055;BME280;35405;52.344;14.530;2022-07-03T06:21:28;101314.97;;;19.86;100.00
49055;BME280;35405;52.344;14.530;2022-07-03T06:23:56;101310.44;;;19.82;100.00
49055;BME280;35405;52.344;14.530;2022-07-03T06:26:22;101306.34;;;20.00;100.00
49055;BME280;35405;52.344;14.530;2022-07-03T06:28:47;101317.13;;;20.14;100.00
49055;BME280;35405;52.344;14.530;2022-07-03T06:31:12;101309.16;;;20.13;100.00
49055;BME280;35405;52.344;14.530;2022-07-03T06:36:02;101306.81;;;20.36;100.00
49055;BME280;35405;52.344;14.530;2022-07-03T06:38:28;101314.16;;;20.31;100.00
49055;BME280;35405;52.344;14.530;2022-07-03T06:40:53;101311.63;;;20.39;100.00
49055;BME280;35405;52.344;14.530;2022-07-03T06:43:18;101308.81;;;20.60;100.00
49055;BME280;35405;52.344;14.530;2022-07-03T06:45:44;101310.47;;;20.73;100.00
49055;BME280;35405;52.344;14.530;2022-07-03T06:48:09;101316.44;;;20.75;100.00
49055;BME280;35405;52.344;14.530;2022-07-03T06:50:34;101315.50;;;20.83;100.00
49055;BME280;35405;52.344;14.530;2022-07-03T06:53:00;101315.28;;;21.00;100.00
49055;BME280;35405;52.344;14.530;2022-07-03T06:55:26;101311.81;;;21.16;100.00
49055;BME280;35405;52.344;14.530;2022-07-03T06:57:51;101305.66;;;21.35;100.00
49055;BME280;35405;52.344;14.530;2022-07-03T07:00:16;101302.97;;;21.51;100.00
49055;BME280;35405;52.344;14.530;2022-07-03T07:02:41;101300.09;;;21.47;100.00
49055;BME280;35405;52.344;14.530;2022-07-03T07:05:07;101304.94;;;21.50;100.00
49055;BME280;35405;52.344;14.530;2022-07-03T07:07:32;101300.66;;;21.53;100.00
49055;BME280;35405;52.344;14.530;2022-07-03T07:09:57;101309.72;;;21.65;100.00
49055;BME280;35405;52.344;14.530;2022-07-03T07:12:23;101304.50;;;21.76;100.00
49055;BME280;35405;52.344;14.530;2022-07-03T07:14:48;101300.88;;;21.88;100.00
49055;BME280;35405;52.344;14.530;2022-07-03T07:17:13;101301.72;;;22.04;100.00
49055;BME280;35405;52.344;14.530;2022-07-03T07:20:00;101296.38;;;22.11;100.00
49055;BME280;35405;52.344;14.530;2022-07-03T07:22:37;101299.91;;;22.24;100.00
49055;BME280;35405;52.344;14.530;2022-07-03T07:25:02;101292.06;;;22.26;100.00
49055;BME280;35405;52.344;14.530;2022-07-03T07:27:27;101297.47;;;22.23;100.00
49055;BME280;35405;52.344;14.530;2022-07-03T07:32:45;101293.66;;;22.43;100.00
49055;BME280;35405;52.344;14.530;2022-07-03T07:35:22;101297.31;;;22.63;100.00
49055;BME280;35405;52.344;14.530;2022-07-03T07:37:47;101287.00;;;22.79;100.00
49055;BME280;35405;52.344;14.530;2022-07-03T07:40:21;101281.91;;;22.97;100.00
49055;BME280;35405;52.344;14.530;2022-07-03T07:42:53;101281.19;;;22.85;100.00
49055;BME280;35405;52.344;14.530;2022-07-03T07:45:18;101272.59;;;22.90;100.00
49055;BME280;35405;52.344;14.530;2022-07-03T07:47:43;101266.06;;;22.98;100.00
49055;BME280;35405;52.344;14.530;2022-07-03T07:50:09;101264.78;;;23.11;100.00
49055;BME280;35405;52.344;14.530;2022-07-03T07:52:34;101271.44;;;23.26;100.00
49055;BME280;35405;52.344;14.530;2022-07-03T07:55:00;101264.84;;;23.15;100.00
49055;BME280;35405;52.344;14.530;2022-07-03T07:57:25;101268.63;;;23.07;100.00
49055;BME280;35405;52.344;14.530;2022-07-03T07:59:58;101267.03;;;23.05;100.00
49055;BME280;35405;52.344;14.530;2022-07-03T08:02:23;101260.84;;;23.12;100.00
49055;BME280;35405;52.344;14.530;2022-07-03T08:05:07;101262.47;;;23.33;100.00
49055;BME280;35405;52.344;14.530;2022-07-03T08:07:50;101263.75;;;23.58;100.00
49055;BME280;35405;52.344;14.530;2022-07-03T08:10:16;101262.56;;;23.56;96.89
49055;BME280;35405;52.344;14.530;2022-07-03T08:12:41;101253.53;;;23.43;94.41
49055;BME280;35405;52.344;14.530;2022-07-03T08:15:06;101241.56;;;23.39;95.27
49055;BME280;35405;52.344;14.530;2022-07-03T08:17:38;101252.69;;;23.39;91.95
49055;BME280;35405;52.344;14.530;2022-07-03T08:20:24;101245.44;;;23.34;94.60
49055;BME280;35405;52.344;14.530;2022-07-03T08:22:49;101244.94;;;23.48;95.97
49055;BME280;35405;52.344;14.530;2022-07-03T08:25:17;101241.78;;;23.49;95.53
49055;BME280;35405;52.344;14.530;2022-07-03T08:27:42;101238.13;;;23.45;95.92
49055;BME280;35405;52.344;14.530;2022-07-03T08:30:11;101234.34;;;23.54;96.72
49055;BME280;35405;52.344;14.530;2022-07-03T08:32:36;101228.50;;;23.59;97.73
49055;BME280;35405;52.344;14.530;2022-07-03T08:35:01;101237.09;;;23.73;97.27
49055;BME280;35405;52.344;14.530;2022-07-03T08:37:27;101228.84;;;23.77;97.77
49055;BME280;35405;52.344;14.530;2022-07-03T08:39:52;101234.16;;;23.66;99.40
49055;BME280;35405;52.344;14.530;2022-07-03T08:42:17;101233.44;;;23.69;98.65
49055;BME280;35405;52.344;14.530;2022-07-03T08:44:44;101235.13;;;23.73;98.10
49055;BME280;35405;52.344;14.530;2022-07-03T08:47:11;101228.53;;;23.82;98.14
49055;BME280;35405;52.344;14.530;2022-07-03T08:49:37;101219.28;;;23.97;99.45
49055;BME280;35405;52.344;14.530;2022-07-03T08:52:02;101222.28;;;24.08;97.09
49055;BME280;35405;52.344;14.530;2022-07-03T08:54:28;101222.44;;;24.18;93.17
49055;BME280;35405;52.344;14.530;2022-07-03T08:56:54;101222.81;;;24.17;89.30
49055;BME280;35405;52.344;14.530;2022-07-03T08:59:19;101220.03;;;24.17;89.83
49055;BME280;35405;52.344;14.530;2022-07-03T09:01:46;101223.06;;;24.08;91.21
49055;BME280;35405;52.344;14.530;2022-07-03T09:04:12;101233.44;;;24.11;90.88
49055;BME280;35405;52.344;14.530;2022-07-03T09:06:39;101221.69;;;24.22;91.77
49055;BME280;35405;52.344;14.530;2022-07-03T09:09:04;101229.41;;;24.32;89.09
49055;BME280;35405;52.344;14.530;2022-07-03T09:11:31;101230.91;;;24.26;86.93
49055;BME280;35405;52.344;14.530;2022-07-03T09:13:56;101232.06;;;24.25;88.96
49055;BME280;35405;52.344;14.530;2022-07-03T09:16:22;101218.03;;;24.40;86.68
49055;BME280;35405;52.344;14.530;2022-07-03T09:18:47;101215.63;;;24.62;87.81
49055;BME280;35405;52.344;14.530;2022-07-03T09:21:12;101223.47;;;24.83;86.66
49055;BME280;35405;52.344;14.530;2022-07-03T09:23:42;101218.31;;;24.85;87.15
49055;BME280;35405;52.344;14.530;2022-07-03T09:26:17;101218.19;;;25.04;88.05
49055;BME280;35405;52.344;14.530;2022-07-03T09:28:44;101203.31;;;24.93;83.48
49055;BME280;35405;52.344;14.530;2022-07-03T09:31:11;101204.50;;;24.92;84.76
49055;BME280;35405;52.344;14.530;2022-07-03T09:33:47;101200.31;;;24.75;82.97
49055;BME280;35405;52.344;14.530;2022-07-03T09:36:13;101192.84;;;24.53;84.20
49055;BME280;35405;52.344;14.530;2022-07-03T09:38:42;101191.50;;;24.43;85.06
49055;BME280;35405;52.344;14.530;2022-07-03T09:41:07;101189.72;;;24.58;84.06
49055;BME280;35405;52.344;14.530;2022-07-03T09:43:33;101190.72;;;24.73;82.66
49055;BME280;35405;52.344;14.530;2022-07-03T09:48:26;101188.84;;;24.80;84.05
49055;BME280;35405;52.344;14.530;2022-07-03T09:51:07;101195.84;;;24.97;83.32
49055;BME280;35405;52.344;14.530;2022-07-03T09:53:43;101186.63;;;24.93;77.59
49055;BME280;35405;52.344;14.530;2022-07-03T09:56:08;101183.59;;;24.75;81.07
49055;BME280;35405;52.344;14.530;2022-07-03T09:58:33;101183.34;;;24.84;77.49
49055;BME280;35405;52.344;14.530;2022-07-03T10:01:14;101188.47;;;24.82;77.49
49055;BME280;35405;52.344;14.530;2022-07-03T10:03:40;101182.91;;;24.82;78.45
49055;BME280;35405;52.344;14.530;2022-07-03T10:06:05;101186.28;;;24.95;81.00
49055;BME280;35405;52.344;14.530;2022-07-03T10:08:30;101189.28;;;25.13;80.51
49055;BME280;35405;52.344;14.530;2022-07-03T10:10:56;101177.81;;;25.18;78.72
49055;BME280;35405;52.344;14.530;2022-07-03T10:13:21;101175.16;;;25.28;78.27
49055;BME280;35405;52.344;14.530;2022-07-03T10:15:47;101175.75;;;25.45;79.01
49055;BME280;35405;52.344;14.530;2022-07-03T10:18:13;101173.94;;;25.63;77.96
49055;BME280;35405;52.344;14.530;2022-07-03T10:20:45;101176.94;;;25.44;75.44
49055;BME280;35405;52.344;14.530;2022-07-03T10:23:17;101178.16;;;25.13;76.44
49055;BME280;35405;52.344;14.530;2022-07-03T10:25:45;101182.78;;;25.01;75.07
49055;BME280;35405;52.344;14.530;2022-07-03T10:28:12;101172.00;;;25.00;74.52
49055;BME280;35405;52.344;14.530;2022-07-03T10:30:38;101174.28;;;24.91;77.48
49055;BME280;35405;52.344;14.530;2022-07-03T10:33:03;101167.50;;;24.88;76.42
49055;BME280;35405;52.344;14.530;2022-07-03T10:35:32;101161.34;;;25.05;77.13
49055;BME280;35405;52.344;14.530;2022-07-03T10:43:13;101152.25;;;25.12;76.77
49055;BME280;35405;52.344;14.530;2022-07-03T10:46:08;101152.19;;;25.05;73.75
49055;BME280;35405;52.344;14.530;2022-07-03T10:51:17;101141.13;;;25.12;73.77
49055;BME280;35405;52.344;14.530;2022-07-03T10:53:42;101136.13;;;25.21;76.58
49055;BME280;35405;52.344;14.530;2022-07-03T10:56:07;101143.03;;;25.35;72.18
49055;BME280;35405;52.344;14.530;2022-07-03T10:58:32;101129.41;;;25.26;70.25
49055;BME280;35405;52.344;14.530;2022-07-03T11:01:25;101136.38;;;25.13;71.46
49055;BME280;35405;52.344;14.530;2022-07-03T11:03:51;101125.38;;;25.23;72.09
49055;BME280;35405;52.344;14.530;2022-07-03T11:06:18;101124.34;;;25.39;74.66
49055;BME280;35405;52.344;14.530;2022-07-03T11:09:02;101120.16;;;25.55;72.51
49055;BME280;35405;52.344;14.530;2022-07-03T11:11:41;101126.66;;;25.70;73.67
49055;BME280;35405;52.344;14.530;2022-07-03T11:19:48;101111.81;;;25.59;73.71
49055;BME280;35405;52.344;14.530;2022-07-03T11:22:40;101106.25;;;26.04;71.53
49055;BME280;35405;52.344;14.530;2022-07-03T11:25:09;101109.06;;;26.07;65.14
49055;BME280;35405;52.344;14.530;2022-07-03T11:27:34;101096.75;;;26.12;61.34
49055;BME280;35405;52.344;14.530;2022-07-03T11:30:00;101101.13;;;26.13;64.10
49055;BME280;35405;52.344;14.530;2022-07-03T11:32:45;101104.06;;;26.34;66.29
49055;BME280;35405;52.344;14.530;2022-07-03T11:37:55;101098.94;;;26.43;61.12
49055;BME280;35405;52.344;14.530;2022-07-03T11:40:22;101100.63;;;26.59;62.50
49055;BME280;35405;52.344;14.530;2022-07-03T11:42:50;101096.31;;;26.72;62.85
49055;BME280;35405;52.344;14.530;2022-07-03T11:45:15;101098.31;;;26.72;61.86
49055;BME280;35405;52.344;14.530;2022-07-03T11:47:40;101091.88;;;26.64;63.00
49055;BME280;35405;52.344;14.530;2022-07-03T11:50:11;101094.28;;;26.65;64.53
49055;BME280;35405;52.344;14.530;2022-07-03T11:52:37;101093.47;;;26.61;62.46
49055;BME280;35405;52.344;14.530;2022-07-03T11:55:02;101088.31;;;26.71;64.88
49055;BME280;35405;52.344;14.530;2022-07-03T11:57:28;101082.50;;;26.28;64.46
49055;BME280;35405;52.344;14.530;2022-07-03T12:00:03;101087.28;;;26.23;69.05
49055;BME280;35405;52.344;14.530;2022-07-03T12:02:29;101087.00;;;26.46;68.71
49055;BME280;35405;52.344;14.530;2022-07-03T12:04:55;101090.66;;;26.58;63.03
49055;BME280;35405;52.344;14.530;2022-07-03T12:07:20;101073.03;;;26.46;63.11
49055;BME280;35405;52.344;14.530;2022-07-03T12:09:49;101078.78;;;26.72;63.39
49055;BME280;35405;52.344;14.530;2022-07-03T12:12:14;101076.03;;;26.86;61.85
49055;BME280;35405;52.344;14.530;2022-07-03T12:17:09;101062.63;;;26.33;68.50
49055;BME280;35405;52.344;14.530;2022-07-03T12:19:43;101062.84;;;26.72;66.58
49055;BME280;35405;52.344;14.530;2022-07-03T12:22:09;101057.69;;;26.78;62.66
49055;BME280;35405;52.344;14.530;2022-07-03T12:24:34;101057.25;;;26.76;66.80
49055;BME280;35405;52.344;14.530;2022-07-03T12:27:01;101058.47;;;26.85;69.57
49055;BME280;35405;52.344;14.530;2022-07-03T12:29:26;101048.63;;;26.29;65.71
49055;BME280;35405;52.344;14.530;2022-07-03T12:31:52;101046.63;;;26.22;69.09
49055;BME280;35405;52.344;14.530;2022-07-03T12:34:23;101042.78;;;26.49;66.07
49055;BME280;35405;52.344;14.530;2022-07-03T12:36:58;101036.88;;;26.57;66.63
49055;BME280;35405;52.344;14.530;2022-07-03T12:39:40;101037.28;;;26.63;65.94
49055;BME280;35405;52.344;14.530;2022-07-03T12:42:16;101038.56;;;26.94;65.32
49055;BME280;35405;52.344;14.530;2022-07-03T12:44:59;101035.34;;;26.81;65.05
49055;BME280;35405;52.344;14.530;2022-07-03T12:47:25;101037.53;;;26.33;67.50
49055;BME280;35405;52.344;14.530;2022-07-03T12:49:54;101039.91;;;26.34;67.12
49055;BME280;35405;52.344;14.530;2022-07-03T12:58:15;101022.66;;;27.20;64.04
49055;BME280;35405;52.344;14.530;2022-07-03T13:01:00;101027.00;;;26.92;62.75
49055;BME280;35405;52.344;14.530;2022-07-03T13:03:26;101019.06;;;27.05;63.93
49055;BME280;35405;52.344;14.530;2022-07-03T13:05:55;101009.88;;;27.11;62.78
49055;BME280;35405;52.344;14.530;2022-07-03T13:08:20;100998.28;;;26.91;62.74
49055;BME280;35405;52.344;14.530;2022-07-03T13:10:54;100993.50;;;26.92;62.61
49055;BME280;35405;52.344;14.530;2022-07-03T13:13:19;100999.09;;;27.10;63.64
49055;BME280;35405;52.344;14.530;2022-07-03T13:15:44;100988.78;;;27.21;61.70
49055;BME280;35405;52.344;14.530;2022-07-03T13:18:16;100991.97;;;27.30;60.82
49055;BME280;35405;52.344;14.530;2022-07-03T13:20:44;100993.94;;;27.58;59.36
49055;BME280;35405;52.344;14.530;2022-07-03T13:23:09;100987.13;;;27.92;60.54
49055;BME280;35405;52.344;14.530;2022-07-03T13:25:35;100987.22;;;29.32;52.51
49055;BME280;35405;52.344;14.530;2022-07-03T13:28:08;100983.59;;;31.06;45.99
49055;BME280;35405;52.344;14.530;2022-07-03T13:30:33;100991.31;;;30.41;44.13
49055;BME280;35405;52.344;14.530;2022-07-03T13:32:59;100986.38;;;28.83;50.17
49055;BME280;35405;52.344;14.530;2022-07-03T13:35:24;100980.75;;;27.88;58.14
49055;BME280;35405;52.344;14.530;2022-07-03T13:37:49;100984.72;;;28.01;56.67
49055;BME280;35405;52.344;14.530;2022-07-03T13:40:15;100979.13;;;27.97;57.28
49055;BME280;35405;52.344;14.530;2022-07-03T13:42:40;100981.91;;;27.97;57.70
49055;BME280;35405;52.344;14.530;2022-07-03T13:45:05;100982.78;;;27.80;58.38
49055;BME280;35405;52.344;14.530;2022-07-03T13:47:31;100973.97;;;27.74;59.97
49055;BME280;35405;52.344;14.530;2022-07-03T13:49:56;100968.34;;;27.99;58.96
49055;BME280;35405;52.344;14.530;2022-07-03T13:52:22;100975.59;;;27.86;58.33
49055;BME280;35405;52.344;14.530;2022-07-03T13:54:50;100975.16;;;27.88;59.63
49055;BME280;35405;52.344;14.530;2022-07-03T13:57:15;100975.13;;;27.95;58.93
49055;BME280;35405;52.344;14.530;2022-07-03T13:59:41;100975.13;;;27.95;59.55
49055;BME280;35405;52.344;14.530;2022-07-03T14:02:06;100980.31;;;28.00;59.21
49055;BME280;35405;52.344;14.530;2022-07-03T14:04:32;100981.41;;;28.27;55.24
49055;BME280;35405;52.344;14.530;2022-07-03T14:06:57;100975.56;;;27.90;55.83
49055;BME280;35405;52.344;14.530;2022-07-03T14:09:23;100971.19;;;27.81;57.37
49055;BME280;35405;52.344;14.530;2022-07-03T14:11:48;100976.38;;;27.79;59.32
49055;BME280;35405;52.344;14.530;2022-07-03T14:14:15;100972.78;;;27.83;57.34
49055;BME280;35405;52.344;14.530;2022-07-03T14:16:40;100962.78;;;27.67;59.60
49055;BME280;35405;52.344;14.530;2022-07-03T14:19:05;100960.78;;;27.93;60.67
49055;BME280;35405;52.344;14.530;2022-07-03T14:21:31;100959.56;;;27.94;58.66
49055;BME280;35405;52.344;14.530;2022-07-03T14:23:56;100960.31;;;28.09;60.56
49055;BME280;35405;52.344;14.530;2022-07-03T14:26:22;100964.75;;;27.99;58.06
49055;BME280;35405;52.344;14.530;2022-07-03T14:29:07;100954.06;;;27.29;64.77
49055;BME280;35405;52.344;14.530;2022-07-03T14:31:54;100954.47;;;27.53;61.26
49055;BME280;35405;52.344;14.530;2022-07-03T14:34:38;100957.63;;;27.51;62.92
49055;BME280;35405;52.344;14.530;2022-07-03T14:37:04;100951.63;;;27.60;63.65
49055;BME280;35405;52.344;14.530;2022-07-03T14:39:29;100950.81;;;27.77;62.87
49055;BME280;35405;52.344;14.530;2022-07-03T14:41:54;100947.25;;;27.80;61.52
49055;BME280;35405;52.344;14.530;2022-07-03T14:44:19;100943.28;;;27.46;62.77
49055;BME280;35405;52.344;14.530;2022-07-03T14:46:49;100942.09;;;27.32;63.04
49055;BME280;35405;52.344;14.530;2022-07-03T14:49:14;100942.88;;;27.44;62.83
49055;BME280;35405;52.344;14.530;2022-07-03T14:51:39;100940.84;;;27.55;62.14
49055;BME280;35405;52.344;14.530;2022-07-03T14:54:05;100938.47;;;27.57;61.39
49055;BME280;35405;52.344;14.530;2022-07-03T14:56:30;100933.28;;;27.63;63.17
49055;BME280;35405;52.344;14.530;2022-07-03T14:58:55;100929.66;;;27.58;59.64
49055;BME280;35405;52.344;14.530;2022-07-03T15:01:25;100928.91;;;27.36;60.50
49055;BME280;35405;52.344;14.530;2022-07-03T15:03:54;100925.72;;;27.31;60.58
49055;BME280;35405;52.344;14.530;2022-07-03T15:06:20;100924.53;;;27.35;61.72
49055;BME280;35405;52.344;14.530;2022-07-03T15:08:57;100919.34;;;27.16;61.13
49055;BME280;35405;52.344;14.530;2022-07-03T15:11:27;100923.69;;;26.74;63.97
49055;BME280;35405;52.344;14.530;2022-07-03T15:14:15;100918.13;;;27.03;64.10
49055;BME280;35405;52.344;14.530;2022-07-03T15:16:44;100913.34;;;27.10;64.20
49055;BME280;35405;52.344;14.530;2022-07-03T15:19:12;100914.56;;;27.24;64.90
49055;BME280;35405;52.344;14.530;2022-07-03T15:21:37;100914.56;;;27.31;65.79
49055;BME280;35405;52.344;14.530;2022-07-03T15:24:05;100917.31;;;27.59;65.88
49055;BME280;35405;52.344;14.530;2022-07-03T15:26:31;100904.94;;;27.53;66.17
49055;BME280;35405;52.344;14.530;2022-07-03T15:29:00;100907.75;;;27.07;65.95
49055;BME280;35405;52.344;14.530;2022-07-03T15:31:26;100903.78;;;27.19;66.73
49055;BME280;35405;52.344;14.530;2022-07-03T15:33:52;100906.97;;;27.53;65.98
49055;BME280;35405;52.344;14.530;2022-07-03T15:36:18;100905.69;;;27.65;62.70
49055;BME280;35405;52.344;14.530;2022-07-03T15:38:47;100895.72;;;27.74;62.41
49055;BME280;35405;52.344;14.530;2022-07-03T15:41:20;100898.94;;;27.80;62.03
49055;BME280;35405;52.344;14.530;2022-07-03T15:44:06;100898.50;;;27.85;61.99
49055;BME280;35405;52.344;14.530;2022-07-03T15:46:41;100898.91;;;27.73;61.67
49055;BME280;35405;52.344;14.530;2022-07-03T15:54:07;100890.56;;;27.55;62.33
49055;BME280;35405;52.344;14.530;2022-07-03T15:56:35;100884.63;;;27.35;64.23
49055;BME280;35405;52.344;14.530;2022-07-03T15:59:03;100886.66;;;27.24;67.06
49055;BME280;35405;52.344;14.530;2022-07-03T16:01:28;100882.25;;;27.19;67.24
49055;BME280;35405;52.344;14.530;2022-07-03T16:04:35;100882.25;;;27.19;66.06
49055;BME280;35405;52.344;14.530;2022-07-03T16:06:58;100884.66;;;27.21;66.52
49055;BME280;35405;52.344;14.530;2022-07-03T16:09:26;100883.44;;;27.25;67.96
49055;BME280;35405;52.344;14.530;2022-07-03T16:11:51;100883.84;;;27.27;66.93
49055;BME280;35405;52.344;14.530;2022-07-03T16:14:17;100879.06;;;27.24;67.75
49055;BME280;35405;52.344;14.530;2022-07-03T16:16:43;100884.25;;;27.29;67.99
49055;BME280;35405;52.344;14.530;2022-07-03T16:19:09;100874.25;;;27.25;67.07
49055;BME280;35405;52.344;14.530;2022-07-03T16:21:36;100871.47;;;27.21;68.12
49055;BME280;35405;52.344;14.530;2022-07-03T16:24:01;100865.88;;;27.07;69.86
49055;BME280;35405;52.344;14.530;2022-07-03T16:26:28;100863.50;;;27.09;70.48
49055;BME280;35405;52.344;14.530;2022-07-03T16:28:54;100859.50;;;27.10;70.02
49055;BME280;35405;52.344;14.530;2022-07-03T16:31:20;100865.50;;;27.05;71.38
49055;BME280;35405;52.344;14.530;2022-07-03T16:33:51;100863.09;;;27.03;71.76
49055;BME280;35405;52.344;14.530;2022-07-03T16:36:21;100859.91;;;26.94;71.08
49055;BME280;35405;52.344;14.530;2022-07-03T16:38:51;100862.31;;;26.88;68.63
49055;BME280;35405;52.344;14.530;2022-07-03T16:41:17;100857.94;;;26.87;70.52
49055;BME280;35405;52.344;14.530;2022-07-03T16:43:46;100855.53;;;26.97;70.77
49055;BME280;35405;52.344;14.530;2022-07-03T16:46:12;100854.31;;;26.98;70.78
49055;BME280;35405;52.344;14.530;2022-07-03T16:48:48;100849.94;;;26.97;71.58
49055;BME280;35405;52.344;14.530;2022-07-03T16:51:14;100849.94;;;26.89;71.49
49055;BME280;35405;52.344;14.530;2022-07-03T16:53:40;100853.94;;;26.88;70.62
49055;BME280;35405;52.344;14.530;2022-07-03T16:56:05;100855.94;;;26.88;71.61
49055;BME280;35405;52.344;14.530;2022-07-03T16:58:31;100855.53;;;26.86;72.61
49055;BME280;35405;52.344;14.530;2022-07-03T17:00:59;100853.13;;;26.77;70.77
49055;BME280;35405;52.344;14.530;2022-07-03T17:03:28;100852.31;;;26.59;72.33
49055;BME280;35405;52.344;14.530;2022-07-03T17:05:55;100865.84;;;26.50;73.79
49055;BME280;35405;52.344;14.530;2022-07-03T17:08:21;100858.66;;;26.49;73.35
49055;BME280;35405;52.344;14.530;2022-07-03T17:10:47;100849.94;;;26.54;72.27
49055;BME280;35405;52.344;14.530;2022-07-03T17:13:13;100850.31;;;26.59;73.35
49055;BME280;35405;52.344;14.530;2022-07-03T17:15:38;100847.53;;;26.56;74.10
49055;BME280;35405;52.344;14.530;2022-07-03T17:18:06;100847.53;;;26.59;74.76
49055;BME280;35405;52.344;14.530;2022-07-03T17:20:33;100849.53;;;26.59;73.23
49055;BME280;35405;52.344;14.530;2022-07-03T17:23:12;100843.56;;;26.57;74.08
49055;BME280;35405;52.344;14.530;2022-07-03T17:25:39;100847.53;;;26.56;73.67
49055;BME280;35405;52.344;14.530;2022-07-03T17:28:05;100837.16;;;26.56;74.52
49055;BME280;35405;52.344;14.530;2022-07-03T17:33:06;100827.97;;;26.49;77.26
49055;BME280;35405;52.344;14.530;2022-07-03T17:35:35;100830.75;;;26.41;76.72
49055;BME280;35405;52.344;14.530;2022-07-03T17:38:06;100827.97;;;26.34;78.51
49055;BME280;35405;52.344;14.530;2022-07-03T17:40:31;100828.34;;;26.29;79.42
49055;BME280;35405;52.344;14.530;2022-07-03T17:42:58;100831.53;;;26.24;79.62
49055;BME280;35405;52.344;14.530;2022-07-03T17:45:25;100823.16;;;26.20;79.92
49055;BME280;35405;52.344;14.530;2022-07-03T17:47:51;100824.72;;;26.14;80.06
49055;BME280;35405;52.344;14.530;2022-07-03T17:50:17;100822.34;;;26.13;79.85
49055;BME280;35405;52.344;14.530;2022-07-03T17:52:43;100827.91;;;26.09;80.35
49055;BME280;35405;52.344;14.530;2022-07-03T17:55:11;100816.75;;;26.06;80.61
49055;BME280;35405;52.344;14.530;2022-07-03T17:57:37;100824.31;;;26.02;79.89
49055;BME280;35405;52.344;14.530;2022-07-03T18:00:07;100819.50;;;25.95;80.72
49055;BME280;35405;52.344;14.530;2022-07-03T18:02:34;100828.28;;;25.93;81.82
49055;BME280;35405;52.344;14.530;2022-07-03T18:05:00;100825.06;;;25.88;82.61
49055;BME280;35405;52.344;14.530;2022-07-03T18:08:12;100821.88;;;25.86;83.24
49055;BME280;35405;52.344;14.530;2022-07-03T18:10:12;100818.22;;;25.78;84.84
49055;BME280;35405;52.344;14.530;2022-07-03T18:12:47;100822.56;;;25.72;85.45
49055;BME280;35405;52.344;14.530;2022-07-03T18:15:16;100816.56;;;25.63;86.33
49055;BME280;35405;52.344;14.530;2022-07-03T18:17:43;100819.75;;;25.61;86.21
49055;BME280;35405;52.344;14.530;2022-07-03T18:20:10;100817.75;;;25.58;86.05
49055;BME280;35405;52.344;14.530;2022-07-03T18:22:37;100818.53;;;25.51;87.01
49055;BME280;35405;52.344;14.530;2022-07-03T18:25:04;100814.91;;;25.47;86.11
49055;BME280;35405;52.344;14.530;2022-07-03T18:27:30;100818.47;;;25.44;86.90
49055;BME280;35405;52.344;14.530;2022-07-03T18:29:55;100820.88;;;25.42;86.20
49055;BME280;35405;52.344;14.530;2022-07-03T18:32:21;100815.25;;;25.35;87.49
49055;BME280;35405;52.344;14.530;2022-07-03T18:34:48;100818.78;;;25.28;87.13
49055;BME280;35405;52.344;14.530;2022-07-03T18:37:15;100819.94;;;25.24;87.29
49055;BME280;35405;52.344;14.530;2022-07-03T18:39:40;100815.97;;;25.21;88.07
49055;BME280;35405;52.344;14.530;2022-07-03T18:42:06;100814.28;;;25.09;88.74
49055;BME280;35405;52.344;14.530;2022-07-03T18:44:31;100811.81;;;24.97;89.66
49055;BME280;35405;52.344;14.530;2022-07-03T18:46:57;100811.81;;;25.01;88.48
49055;BME280;35405;52.344;14.530;2022-07-03T18:49:22;100808.59;;;24.92;89.23
49055;BME280;35405;52.344;14.530;2022-07-03T18:51:48;100808.50;;;24.84;89.99
49055;BME280;35405;52.344;14.530;2022-07-03T18:54:27;100814.06;;;24.81;90.01
49055;BME280;35405;52.344;14.530;2022-07-03T19:01:49;100807.56;;;24.66;90.56
49055;BME280;35405;52.344;14.530;2022-07-03T19:07:05;100808.66;;;24.54;90.69
49055;BME280;35405;52.344;14.530;2022-07-03T19:10:06;100806.19;;;24.46;91.60
49055;BME280;35405;52.344;14.530;2022-07-03T19:12:25;100807.31;;;24.37;92.05